»·PEaware :: SWA620 KPHX-KLAS

SWA620 :: KPHX-KLAS

FLIGHT INFORMATION

Flight Status: Arrived
Operator:
Southwest Airlines
More flights by this operator :: More flights under this callsign
Pilot: Scott H. (18906)
Aircraft: BOEING 737-800
(B738)
More flights by this aircraft type
Origin: KPHX Phoenix Sky Harbor Intl
United States
Destination: KLAS McCarran Intl
United States
More flights between these airports :: More routes between these airports
Route: +MAYSA5 SISIE IGM TYSSN5
File this flight plan on PilotEdge
Remarks: PBN / A1B1C1D1S1S2 NAV / RNVD1E2A1 REG / N806SB EET / KZLA0021 RMK / SIMBRIEF
Altitude:
(Current/Filed)
28,000ft
Speed:
(Current/Filed)
415kts
Departed: 16-Apr-18 07:09 PM
Arrived: 16-Apr-18 07:55 PM
Distance/Time
Traveled:
222nm/0:46
Distance/Time
To Go:
Arrived

Flight Plot

Page will automatically refresh every two minutes.

Flight plan parsing failed; only flown route is shown


Map Options




Map Legend


Flown Route
Filed Route
Departure Airport
Arrival Airport
Navaid (VOR, NDB)
Fix

Horizontal Profiles

Position Reports

Time Latitude Longitude Heading Altitude Ground
Speed
16-Apr-18 18:34 33.433398 -111.996877 33 1146ft 0kts
16-Apr-18 18:35 33.433398 -111.996877 33 1146ft 0kts
16-Apr-18 18:36 33.433398 -111.996877 33 1146ft 0kts
16-Apr-18 18:37 33.433398 -111.996877 33 1146ft 0kts
16-Apr-18 18:38 33.433398 -111.996877 33 1146ft 0kts
16-Apr-18 18:39 33.433398 -111.996877 33 1146ft 0kts
16-Apr-18 18:40 33.433398 -111.996877 33 1146ft 0kts
16-Apr-18 18:41 33.433398 -111.996877 33 1146ft 0kts
16-Apr-18 18:42 33.433398 -111.996877 33 1146ft 0kts
16-Apr-18 18:43 33.433398 -111.996877 33 1146ft 0kts
16-Apr-18 18:44 33.433398 -111.996877 33 1146ft 0kts
16-Apr-18 18:45 33.433398 -111.996877 33 1146ft 0kts
16-Apr-18 18:46 33.433398 -111.996877 33 1146ft 0kts
16-Apr-18 18:47 33.433398 -111.996877 33 1146ft 0kts
16-Apr-18 18:48 33.433398 -111.996877 33 1146ft 0kts
16-Apr-18 18:49 33.433398 -111.996877 33 1146ft 0kts
16-Apr-18 18:50 33.433398 -111.996877 33 1146ft 0kts
16-Apr-18 18:51 33.433398 -111.996877 33 1146ft 0kts
16-Apr-18 18:52 33.433398 -111.996877 33 1146ft 0kts
16-Apr-18 18:53 33.433398 -111.996877 33 1146ft 0kts
16-Apr-18 18:54 33.433398 -111.996877 33 1146ft 0kts
16-Apr-18 18:55 33.433398 -111.996877 33 1146ft 0kts
16-Apr-18 18:56 33.433398 -111.996877 33 1146ft 0kts
16-Apr-18 18:57 33.433398 -111.996877 33 1146ft 0kts
16-Apr-18 18:58 33.433398 -111.996877 33 1146ft 0kts
16-Apr-18 18:59 33.433398 -111.996877 33 1146ft 0kts
16-Apr-18 19:00 33.433155 -111.997067 33 1146ft 2kts
16-Apr-18 19:01 33.432777 -111.997363 33 1146ft 0kts
16-Apr-18 19:02 33.432779 -111.997361 33 1146ft 0kts
16-Apr-18 19:03 33.432784 -111.997358 33 1146ft 0kts
16-Apr-18 19:04 33.432833 -111.995531 90 1146ft 13kts
16-Apr-18 19:05 33.432016 -111.993591 177 1146ft 0kts
16-Apr-18 19:06 33.432012 -111.993591 177 1146ft 0kts
16-Apr-18 19:07 33.431054 -111.994192 264 1146ft 3kts
16-Apr-18 19:08 33.431034 -112.032636 268 2100ft 185kts
16-Apr-18 19:09 33.464154 -112.075503 333 4919ft 207kts
16-Apr-18 19:10 33.494001 -112.114293 298 7171ft 190kts
16-Apr-18 19:11 33.530126 -112.171000 316 8996ft 245kts
16-Apr-18 19:12 33.602805 -112.197651 339 11049ft 300kts
16-Apr-18 19:13 33.685475 -112.223796 338 12787ft 324kts
16-Apr-18 19:14 33.780680 -112.254370 337 15339ft 377kts
16-Apr-18 19:15 33.884358 -112.287918 336 18912ft 396kts
16-Apr-18 19:16 33.992159 -112.322855 336 21406ft 406kts
16-Apr-18 19:17 34.085758 -112.391779 311 23572ft 387kts
16-Apr-18 19:18 34.168620 -112.475873 310 24359ft 391kts
16-Apr-18 19:19 34.252271 -112.560427 309 25870ft 387kts
16-Apr-18 19:20 34.333970 -112.643172 308 27938ft 381kts
16-Apr-18 19:21 34.414950 -112.725241 307 28030ft 380kts
16-Apr-18 19:22 34.496171 -112.807815 307 28029ft 380kts
16-Apr-18 19:23 34.576745 -112.890150 306 28025ft 378kts
16-Apr-18 19:24 34.654525 -112.975030 305 28016ft 375kts
16-Apr-18 19:25 34.732344 -113.060411 305 28021ft 377kts
16-Apr-18 19:26 34.809992 -113.145629 305 27990ft 376kts
16-Apr-18 19:27 34.887977 -113.231379 305 27968ft 376kts
16-Apr-18 19:28 34.965349 -113.316677 305 27947ft 376kts
16-Apr-18 19:29 35.022318 -113.417172 287 27917ft 350kts
16-Apr-18 19:30 35.070039 -113.520843 287 27900ft 350kts
16-Apr-18 19:31 35.117801 -113.624216 287 27877ft 350kts
16-Apr-18 19:32 35.165217 -113.726884 287 26974ft 342kts
16-Apr-18 19:33 35.211196 -113.826681 287 25342ft 331kts
16-Apr-18 19:34 35.256111 -113.922879 294 23709ft 327kts
16-Apr-18 19:35 35.327823 -113.996478 310 22022ft 340kts
16-Apr-18 19:36 35.403771 -114.067145 310 19784ft 331kts
16-Apr-18 19:37 35.474357 -114.132922 309 18261ft 313kts
16-Apr-18 19:38 35.542864 -114.196764 309 16673ft 301kts
16-Apr-18 19:39 35.611391 -114.260793 311 15038ft 310kts
16-Apr-18 19:40 35.679492 -114.324499 312 13360ft 307kts
16-Apr-18 19:41 35.748526 -114.386037 323 12008ft 303kts
16-Apr-18 19:42 35.830019 -114.425440 331 12006ft 320kts
16-Apr-18 19:43 35.912280 -114.463266 330 11996ft 312kts
16-Apr-18 19:44 35.979474 -114.511720 293 11690ft 256kts
16-Apr-18 19:45 36.019259 -114.587387 291 9973ft 270kts
16-Apr-18 19:46 36.059946 -114.668116 292 8221ft 282kts
16-Apr-18 19:47 36.097113 -114.750668 273 6358ft 258kts
16-Apr-18 19:48 36.088715 -114.826683 252 5363ft 204kts
16-Apr-18 19:49 36.077433 -114.895428 251 4984ft 204kts
16-Apr-18 19:50 36.072601 -114.964365 271 4566ft 185kts
16-Apr-18 19:51 36.076066 -115.019258 254 3871ft 147kts
16-Apr-18 19:52 36.074037 -115.067200 260 3254ft 131kts
16-Apr-18 19:53 36.073576 -115.111683 264 2479ft 129kts
16-Apr-18 19:54 36.073711 -115.143159 291 2192ft 23kts
16-Apr-18 19:55 36.074435 -115.145056 294 2192ft 2kts
16-Apr-18 19:56 36.076245 -115.146476 356 2192ft 12kts
16-Apr-18 19:57 36.077942 -115.146960 325 2192ft 3kts
16-Apr-18 19:58 36.081480 -115.149073 336 2192ft 11kts
16-Apr-18 19:59 36.082084 -115.148335 63 2192ft 0kts
16-Apr-18 20:00 36.082085 -115.148333 63 2192ft 0kts
16-Apr-18 20:01 36.082085 -115.148333 63 2192ft 0kts
16-Apr-18 20:02 36.082085 -115.148333 63 2192ft 0kts
16-Apr-18 20:03 36.082085 -115.148333 63 2192ft 0kts
16-Apr-18 20:04 36.082085 -115.148333 63 2192ft 0kts
16-Apr-18 20:05 36.082085 -115.148333 63 2192ft 0kts
16-Apr-18 20:06 36.082085 -115.148333 63 2192ft 0kts
16-Apr-18 20:07 36.082085 -115.148333 63 2192ft 0kts
16-Apr-18 20:08 36.082085 -115.148333 63 2192ft 0kts

Navigation Log

Ident Type
Flight plan parsing failed, navigation log unavailable